createdAt,value
2019-02-28T00:00:03.031Z,1.4
2019-02-28T00:01:02.946Z,1.4
2019-02-28T00:02:03.263Z,1.6
2019-02-28T00:03:03.024Z,1.7
2019-02-28T00:04:02.710Z,1.8
2019-02-28T00:05:06.907Z,1.8
2019-02-28T00:06:03.580Z,1.8
2019-02-28T00:07:03.530Z,1.3
2019-02-28T00:08:03.308Z,1
2019-02-28T00:09:03.092Z,0.8
2019-02-28T00:10:03.334Z,0.8
2019-02-28T00:11:06.181Z,0.8
2019-02-28T00:12:03.557Z,0.8
2019-02-28T00:13:03.451Z,0.9
2019-02-28T00:14:03.463Z,0.9
2019-02-28T00:15:03.419Z,1.1
2019-02-28T00:16:04.117Z,1.2
2019-02-28T00:17:09.976Z,1.4
2019-02-28T00:18:03.902Z,1.6
2019-02-28T00:19:03.401Z,1.6
2019-02-28T00:20:03.306Z,1.4
2019-02-28T00:21:07.203Z,1.1
2019-02-28T00:22:03.004Z,1.1
2019-02-28T00:23:03.013Z,1.1
2019-02-28T00:24:03.194Z,1.3
2019-02-28T00:25:05.156Z,1.4
2019-02-28T00:26:03.112Z,1.7
2019-02-28T00:27:02.840Z,1.9
2019-02-28T00:28:03.270Z,2
2019-02-28T00:29:03.124Z,2.1
2019-02-28T00:30:07.034Z,2.1
2019-02-28T00:31:02.920Z,2.2
2019-02-28T00:32:03.158Z,2.2
2019-02-28T00:33:03.622Z,2.1
2019-02-28T00:34:05.685Z,2
2019-02-28T00:35:03.215Z,1.8
2019-02-28T00:36:03.345Z,1.1
2019-02-28T00:37:03.147Z,0.9
2019-02-28T00:38:02.978Z,0.8
2019-02-28T00:39:04.270Z,0.8
2019-02-28T00:40:02.933Z,0.8
2019-02-28T00:41:03.306Z,1
2019-02-28T00:42:02.980Z,1.3
2019-02-28T00:43:03.118Z,1.5
2019-02-28T00:44:04.609Z,1.8
2019-02-28T00:45:03.911Z,2
2019-02-28T00:46:03.122Z,2.1
2019-02-28T00:47:02.919Z,2.2
2019-02-28T00:48:03.090Z,2.3
2019-02-28T00:49:02.960Z,2.3
2019-02-28T00:50:03.100Z,2.4
2019-02-28T00:51:03.750Z,2.4
2019-02-28T00:52:03.051Z,2.4
2019-02-28T00:53:02.853Z,2.4
2019-02-28T00:54:02.969Z,2.5
2019-02-28T00:55:03.003Z,2.5
2019-02-28T00:56:03.754Z,2.5
2019-02-28T00:57:02.835Z,2.5
2019-02-28T00:58:03.740Z,2.6
2019-02-28T00:59:03.763Z,2.6
2019-02-28T01:00:06.459Z,2.6
2019-02-28T01:01:03.668Z,2.7
2019-02-28T01:02:03.724Z,2.7
2019-02-28T01:03:03.417Z,2.7
2019-02-28T01:04:03.507Z,2.8
2019-02-28T01:05:06.168Z,2.8
2019-02-28T01:06:03.593Z,2.8
2019-02-28T01:07:03.559Z,2.8
2019-02-28T01:08:03.546Z,2.8
2019-02-28T01:09:03.491Z,2.9
2019-02-28T01:10:05.316Z,2.8
2019-02-28T01:11:01.968Z,2.8
2019-02-28T01:12:03.762Z,2.8
2019-02-28T01:13:03.822Z,2.8
2019-02-28T01:14:03.160Z,2.8
2019-02-28T01:15:03.081Z,2.8
2019-02-28T01:16:03.715Z,2.8
2019-02-28T01:17:03.431Z,2.8
2019-02-28T01:18:03.524Z,2.8
2019-02-28T01:19:02.993Z,2.8
2019-02-28T01:20:03.193Z,2.8
2019-02-28T01:21:03.164Z,2.8
2019-02-28T01:22:03.206Z,2.8
2019-02-28T01:23:03.075Z,2.8
2019-02-28T01:24:03.216Z,2.8
2019-02-28T01:25:07.167Z,2.8
2019-02-28T01:26:03.346Z,2.8
2019-02-28T01:27:03.208Z,2.8
2019-02-28T01:28:03.089Z,2.9
2019-02-28T01:29:03.212Z,2.9
2019-02-28T01:30:03.321Z,2.9
2019-02-28T01:31:03.244Z,2.9
2019-02-28T01:32:02.867Z,2.9
2019-02-28T01:33:03.112Z,3
2019-02-28T01:34:03.163Z,3
2019-02-28T01:35:07.020Z,3
2019-02-28T01:36:02.915Z,3
2019-02-28T01:37:02.865Z,3
2019-02-28T01:38:02.573Z,3
2019-02-28T01:39:03.744Z,2.9
2019-02-28T01:40:05.436Z,2.9
2019-02-28T01:41:03.881Z,2.9
2019-02-28T01:42:03.778Z,2.8
2019-02-28T01:43:03.824Z,2.8
2019-02-28T01:44:03.523Z,2.8
2019-02-28T01:45:03.242Z,2.9
2019-02-28T01:46:03.572Z,2.9
2019-02-28T01:47:02.782Z,3
2019-02-28T01:48:03.666Z,3.1
2019-02-28T01:49:03.556Z,3.1
2019-02-28T01:50:03.392Z,3.1
2019-02-28T01:51:03.841Z,3.1
2019-02-28T01:52:03.709Z,3.1
2019-02-28T01:53:03.612Z,3.1
2019-02-28T01:54:03.607Z,3.2
2019-02-28T01:55:03.649Z,3.2
2019-02-28T01:56:03.386Z,3.2
2019-02-28T01:57:03.422Z,3.2
2019-02-28T01:58:04.171Z,3.2
2019-02-28T01:59:03.324Z,3.3
2019-02-28T02:00:03.499Z,3.3
2019-02-28T02:01:02.844Z,3.3
2019-02-28T02:02:07.111Z,3.3
2019-02-28T02:03:03.683Z,3.3
2019-02-28T02:04:03.736Z,3.3
2019-02-28T02:05:02.823Z,3.4
2019-02-28T02:06:02.609Z,3.3
2019-02-28T02:07:03.608Z,3.4
2019-02-28T02:08:07.498Z,3.4
2019-02-28T02:09:02.845Z,3.4
2019-02-28T02:10:03.806Z,3.4
2019-02-28T02:11:03.824Z,3.4
2019-02-28T02:12:03.698Z,3.4
2019-02-28T02:13:04.430Z,3.4
2019-02-28T02:14:03.586Z,3.4
2019-02-28T02:15:03.421Z,3.5
2019-02-28T02:16:03.642Z,3.5
2019-02-28T02:17:03.315Z,3.5
2019-02-28T02:18:10.083Z,3.5
2019-02-28T02:19:03.457Z,3.5
2019-02-28T02:20:03.484Z,3.5
2019-02-28T02:21:03.431Z,3.5
2019-02-28T02:22:06.519Z,3.4
2019-02-28T02:23:03.384Z,3.4
2019-02-28T02:24:03.323Z,3.4
2019-02-28T02:25:04.370Z,3.4
2019-02-28T02:26:03.407Z,3.4
2019-02-28T02:27:03.130Z,3.4
2019-02-28T02:28:03.269Z,3.4
2019-02-28T02:29:03.231Z,3.3
2019-02-28T02:30:02.949Z,3.3
2019-02-28T02:31:02.985Z,3.3
2019-02-28T02:32:02.854Z,3.3
2019-02-28T02:33:03.093Z,3.3
2019-02-28T02:34:03.160Z,3.3
2019-02-28T02:35:08.628Z,3.2
2019-02-28T02:36:03.101Z,3.2
2019-02-28T02:37:02.943Z,3.2
2019-02-28T02:38:04.985Z,3.2
2019-02-28T02:39:03.751Z,3.2
2019-02-28T02:40:03.625Z,3.2
2019-02-28T02:41:05.092Z,3.1
2019-02-28T02:42:11.836Z,3.1
2019-02-28T02:43:02.987Z,3.2
2019-02-28T02:44:03.154Z,3.1
2019-02-28T02:45:06.759Z,3.1
2019-02-28T02:46:03.694Z,3.1
2019-02-28T02:47:03.423Z,3.1
2019-02-28T02:48:06.995Z,3.1
2019-02-28T02:49:03.118Z,3.1
2019-02-28T02:50:03.481Z,3
2019-02-28T02:51:03.213Z,3
2019-02-28T02:52:03.422Z,3
2019-02-28T02:53:06.702Z,3
2019-02-28T02:54:03.307Z,2.9
2019-02-28T02:55:03.130Z,2.9
2019-02-28T02:56:05.133Z,3
2019-02-28T02:57:03.279Z,2.9
2019-02-28T02:58:03.195Z,2.9
2019-02-28T02:59:03.496Z,2.9
2019-02-28T03:00:03.343Z,2.9
2019-02-28T03:01:03.014Z,2.9
2019-02-28T03:02:02.827Z,2.8
2019-02-28T03:03:07.920Z,2.8
2019-02-28T03:04:03.382Z,2.8
2019-02-28T03:05:03.638Z,2.8
2019-02-28T03:06:03.376Z,2.8
2019-02-28T03:07:03.017Z,2.8
2019-02-28T03:08:03.087Z,2.8
2019-02-28T03:09:03.072Z,2.8
2019-02-28T03:10:03.186Z,2.8
2019-02-28T03:11:03.307Z,2.8
2019-02-28T03:12:02.907Z,2.9
2019-02-28T03:13:06.628Z,2.9
2019-02-28T03:14:02.868Z,2.9
2019-02-28T03:15:03.752Z,2.9
2019-02-28T03:16:03.139Z,2.9
2019-02-28T03:17:12.248Z,2.9
2019-02-28T03:18:03.147Z,2.9
2019-02-28T03:19:03.012Z,2.9
2019-02-28T03:20:08.959Z,2.9
2019-02-28T03:21:03.113Z,2.9
2019-02-28T03:22:02.908Z,2.9
2019-02-28T03:23:03.612Z,2.9
2019-02-28T03:24:02.749Z,2.9
2019-02-28T03:25:03.162Z,2.9
2019-02-28T03:26:07.376Z,2.9
2019-02-28T03:27:03.184Z,2.9
2019-02-28T03:28:03.011Z,2.9
2019-02-28T03:29:09.061Z,2.9
2019-02-28T03:30:03.882Z,2.9
2019-02-28T03:31:15.727Z,2.9
2019-02-28T03:32:03.653Z,2.9
2019-02-28T03:33:03.635Z,2.8
2019-02-28T03:34:14.348Z,2.9
2019-02-28T03:35:03.097Z,2.8
2019-02-28T03:36:03.030Z,2.8
2019-02-28T03:37:03.129Z,2.8
2019-02-28T03:38:12.788Z,2.8
2019-02-28T03:39:03.131Z,2.9
2019-02-28T03:40:05.492Z,2.9
2019-02-28T03:41:03.997Z,2.9
2019-02-28T03:42:03.039Z,2.9
2019-02-28T03:43:07.225Z,2.9
2019-02-28T03:44:02.940Z,2.9
2019-02-28T03:45:03.046Z,3
2019-02-28T03:46:11.672Z,3
2019-02-28T03:47:03.678Z,3
2019-02-28T03:48:03.673Z,3.1
2019-02-28T03:49:12.659Z,3
2019-02-28T03:50:03.890Z,3
2019-02-28T03:51:03.625Z,3
2019-02-28T03:52:07.026Z,3
2019-02-28T03:53:03.541Z,3
2019-02-28T03:54:02.831Z,3
2019-02-28T03:55:04.835Z,3
2019-02-28T03:56:03.857Z,3
2019-02-28T03:57:03.765Z,3
2019-02-28T03:58:06.011Z,2.9
2019-02-28T03:59:03.143Z,2.9
2019-02-28T04:00:03.507Z,2.9
2019-02-28T04:01:10.399Z,2.9
2019-02-28T04:02:03.534Z,2.9
2019-02-28T04:03:03.598Z,2.9
2019-02-28T04:04:12.652Z,2.9
2019-02-28T04:05:03.781Z,2.9
2019-02-28T04:06:05.061Z,2.8
2019-02-28T04:07:02.829Z,2.7
2019-02-28T04:08:03.960Z,2.7
2019-02-28T04:09:09.189Z,2.6
2019-02-28T04:10:03.715Z,2.6
2019-02-28T04:11:03.652Z,2.6
2019-02-28T04:12:09.208Z,2.6
2019-02-28T04:13:03.660Z,2.6
2019-02-28T04:14:04.000Z,2.6
2019-02-28T04:15:11.234Z,2.6
2019-02-28T04:16:10.209Z,2.7
2019-02-28T04:17:03.375Z,2.8
2019-02-28T04:18:08.728Z,2.8
2019-02-28T04:19:03.669Z,2.8
2019-02-28T04:20:03.747Z,2.8
2019-02-28T04:21:03.475Z,2.8
2019-02-28T04:22:03.003Z,2.8
2019-02-28T04:23:03.462Z,2.7
2019-02-28T04:24:03.633Z,2.7
2019-02-28T04:25:03.781Z,2.8
2019-02-28T04:26:03.264Z,2.8
2019-02-28T04:27:08.017Z,2.8
2019-02-28T04:28:03.330Z,2.8
2019-02-28T04:29:03.628Z,2.8
2019-02-28T04:30:08.680Z,2.7
2019-02-28T04:31:03.256Z,2.7
2019-02-28T04:32:03.165Z,2.7
2019-02-28T04:33:03.462Z,2.6
2019-02-28T04:34:03.406Z,2.6
2019-02-28T04:35:03.704Z,2.6
2019-02-28T04:36:03.353Z,2.6
2019-02-28T04:37:03.443Z,2.6
2019-02-28T04:38:03.339Z,2.6
2019-02-28T04:39:03.380Z,2.6
2019-02-28T04:40:03.331Z,2.6
2019-02-28T04:41:03.154Z,2.5
2019-02-28T04:42:06.167Z,2.4
2019-02-28T04:43:03.283Z,2.4
2019-02-28T04:44:03.474Z,2.4
2019-02-28T04:45:03.326Z,2.3
2019-02-28T04:46:03.531Z,2.3
2019-02-28T04:47:07.667Z,2.2
2019-02-28T04:48:03.157Z,2.1
2019-02-28T04:49:03.273Z,2.2
2019-02-28T04:50:03.299Z,2.2
2019-02-28T04:51:06.786Z,2.3
2019-02-28T04:52:03.315Z,2.3
2019-02-28T04:53:03.070Z,2.3
2019-02-28T04:54:02.964Z,2.3
2019-02-28T04:55:04.061Z,2.3
2019-02-28T04:56:03.202Z,2.3
2019-02-28T04:57:03.384Z,2.3
2019-02-28T04:58:02.551Z,2.2
2019-02-28T04:59:02.857Z,2.1
2019-02-28T05:00:06.767Z,2.1
2019-02-28T05:01:03.078Z,2.1
2019-02-28T05:02:02.908Z,2.1
2019-02-28T05:03:02.852Z,2.1
2019-02-28T05:04:03.222Z,2.1
2019-02-28T05:05:03.034Z,2.1
2019-02-28T05:06:02.758Z,2.1
2019-02-28T05:07:02.838Z,2.1
2019-02-28T05:08:06.070Z,2.1
2019-02-28T05:09:02.839Z,2.2
2019-02-28T05:10:02.971Z,2.2
2019-02-28T05:11:02.710Z,2.3
2019-02-28T05:12:06.130Z,2.3
2019-02-28T05:13:03.054Z,2.4
2019-02-28T05:14:03.033Z,2.4
2019-02-28T05:15:02.943Z,2.4
2019-02-28T05:16:03.013Z,2.5
2019-02-28T05:17:02.924Z,2.6
2019-02-28T05:18:03.378Z,2.6
2019-02-28T05:19:03.674Z,2.6
2019-02-28T05:20:03.729Z,2.6
2019-02-28T05:21:03.040Z,2.6
2019-02-28T05:22:02.441Z,2.6
2019-02-28T05:23:03.891Z,2.6
2019-02-28T05:24:03.860Z,2.6
2019-02-28T05:25:03.822Z,2.6
2019-02-28T05:26:03.254Z,2.6
2019-02-28T05:27:02.925Z,2.6
2019-02-28T05:28:07.654Z,2.6
2019-02-28T05:29:02.975Z,2.6
2019-02-28T05:30:02.826Z,2.5
2019-02-28T05:31:02.899Z,2.5
2019-02-28T05:32:02.886Z,2.5
2019-02-28T05:33:02.844Z,2.5
2019-02-28T05:34:03.112Z,2.5
2019-02-28T05:35:02.741Z,2.5
2019-02-28T05:36:04.541Z,2.4
2019-02-28T05:37:03.697Z,2.4
2019-02-28T05:38:03.708Z,2.4
2019-02-28T05:39:03.784Z,2.4
2019-02-28T05:40:07.076Z,2.4
2019-02-28T05:41:03.656Z,2.4
2019-02-28T05:42:02.999Z,2.4
2019-02-28T05:43:02.957Z,2.4
2019-02-28T05:44:07.242Z,2.4
2019-02-28T05:45:03.100Z,2.4
2019-02-28T05:46:03.636Z,2.4
2019-02-28T05:47:03.542Z,2.4
2019-02-28T05:48:04.771Z,2.4
2019-02-28T05:49:03.846Z,2.4
2019-02-28T05:50:03.749Z,2.4
2019-02-28T05:51:02.872Z,2.4
2019-02-28T05:52:02.973Z,2.3
2019-02-28T05:53:10.057Z,2.3
2019-02-28T05:54:02.646Z,2.4
2019-02-28T05:55:03.462Z,2.4
2019-02-28T05:56:03.323Z,2.4
2019-02-28T05:57:09.001Z,2.4
2019-02-28T05:58:02.877Z,2.3
2019-02-28T05:59:02.670Z,2.3
2019-02-28T06:00:03.188Z,2.3
2019-02-28T06:01:03.022Z,2.3
2019-02-28T06:02:02.845Z,2.3
2019-02-28T06:03:03.330Z,2.3
2019-02-28T06:04:04.111Z,2.3
2019-02-28T06:05:03.361Z,2.3
2019-02-28T06:06:03.007Z,2.3
2019-02-28T06:07:03.165Z,2.3
2019-02-28T06:08:04.346Z,2.4
2019-02-28T06:09:03.131Z,2.4
2019-02-28T06:10:03.814Z,2.4
2019-02-28T06:11:02.869Z,2.3
2019-02-28T06:12:02.882Z,2.3
2019-02-28T06:13:03.007Z,2.4
2019-02-28T06:14:02.687Z,2.3
2019-02-28T06:15:03.877Z,2.3
2019-02-28T06:16:02.908Z,2.4
2019-02-28T06:17:03.016Z,2.4
2019-02-28T06:18:03.861Z,2.4
2019-02-28T06:19:09.115Z,2.4
2019-02-28T06:20:03.873Z,2.4
2019-02-28T06:21:03.701Z,2.4
2019-02-28T06:22:02.822Z,2.5
2019-02-28T06:23:03.089Z,2.5
2019-02-28T06:24:02.961Z,2.5
2019-02-28T06:25:03.306Z,2.5
2019-02-28T06:26:03.103Z,2.6
2019-02-28T06:27:07.670Z,2.6
2019-02-28T06:28:02.843Z,2.6
2019-02-28T06:29:06.004Z,2.6
2019-02-28T06:30:02.695Z,2.6
2019-02-28T06:31:03.785Z,2.7
2019-02-28T06:32:03.702Z,2.7
2019-02-28T06:33:03.682Z,2.8
2019-02-28T06:34:09.322Z,2.7
2019-02-28T06:35:02.823Z,2.8
2019-02-28T06:36:04.752Z,2.8
2019-02-28T06:37:04.586Z,2.9
2019-02-28T06:38:03.098Z,2.8
2019-02-28T06:39:03.714Z,2.9
2019-02-28T06:40:03.569Z,2.9
2019-02-28T06:41:08.707Z,2.9
2019-02-28T06:42:03.594Z,2.9
2019-02-28T06:43:03.018Z,2.9
2019-02-28T06:44:03.323Z,3.1
2019-02-28T06:45:03.932Z,3.1
2019-02-28T06:46:03.886Z,3.1
2019-02-28T06:47:03.803Z,3.1
2019-02-28T06:48:03.801Z,3.1
2019-02-28T06:49:07.310Z,3.2
2019-02-28T06:50:03.836Z,3.2
2019-02-28T06:51:03.676Z,3.2
2019-02-28T06:52:02.872Z,3.3
2019-02-28T06:53:03.187Z,3.3
2019-02-28T06:54:08.788Z,3.3
2019-02-28T06:55:02.947Z,3.3
2019-02-28T06:56:02.961Z,3.4
2019-02-28T06:57:02.583Z,3.4
2019-02-28T06:58:03.025Z,3.4
2019-02-28T06:59:05.745Z,3.4
2019-02-28T07:00:02.940Z,3.5
2019-02-28T07:01:03.421Z,3.5
2019-02-28T07:02:03.728Z,3.5
2019-02-28T07:03:04.571Z,3.5
2019-02-28T07:04:02.810Z,3.6
2019-02-28T07:05:03.316Z,3.6
2019-02-28T07:06:03.030Z,3.6
2019-02-28T07:07:03.111Z,3.6
2019-02-28T07:08:02.775Z,3.7
2019-02-28T07:09:03.211Z,3.8
2019-02-28T07:10:02.790Z,3.7
2019-02-28T07:11:02.712Z,3.7
2019-02-28T07:12:03.781Z,3.7
2019-02-28T07:13:05.740Z,3.8
2019-02-28T07:14:02.810Z,3.9
2019-02-28T07:15:03.087Z,3.9
2019-02-28T07:16:04.526Z,3.9
2019-02-28T07:17:03.071Z,3.9
2019-02-28T07:18:03.723Z,4
2019-02-28T07:19:02.931Z,4
2019-02-28T07:20:03.613Z,4.1
2019-02-28T07:21:03.541Z,4.1
2019-02-28T07:22:03.478Z,4.1
2019-02-28T07:23:02.474Z,4.1
2019-02-28T07:24:03.921Z,4.1
2019-02-28T07:25:03.531Z,4.1
2019-02-28T07:26:03.596Z,4.2
2019-02-28T07:27:04.401Z,4.3
2019-02-28T07:28:03.617Z,4.3
2019-02-28T07:29:03.616Z,4.4
2019-02-28T07:30:03.607Z,4.4
2019-02-28T07:31:02.964Z,4.4
2019-02-28T07:32:03.449Z,4.4
2019-02-28T07:33:10.778Z,4.5
2019-02-28T07:34:03.335Z,4.6
2019-02-28T07:35:03.558Z,4.6
2019-02-28T07:36:10.711Z,4.7
2019-02-28T07:37:03.368Z,4.8
2019-02-28T07:38:03.216Z,4.8
2019-02-28T07:39:05.326Z,4.8
2019-02-28T07:40:03.111Z,4.9
2019-02-28T07:41:03.506Z,4.9
2019-02-28T07:42:03.186Z,5
2019-02-28T07:43:03.358Z,5.1
2019-02-28T07:44:03.233Z,5.1
2019-02-28T07:45:03.323Z,5.2
2019-02-28T07:46:08.863Z,5.3
2019-02-28T07:47:03.504Z,5.3
2019-02-28T07:48:03.448Z,5.4
2019-02-28T07:49:03.345Z,5.4
2019-02-28T07:50:03.198Z,5.4
2019-02-28T07:51:03.006Z,5.4
2019-02-28T07:52:03.305Z,5.6
2019-02-28T07:53:09.789Z,5.7
2019-02-28T07:54:03.131Z,5.8
2019-02-28T07:55:03.000Z,5.8
2019-02-28T07:56:07.848Z,5.8
2019-02-28T07:57:03.049Z,5.9
2019-02-28T07:58:03.216Z,5.9
2019-02-28T07:59:06.438Z,6
2019-02-28T08:00:03.483Z,5.9
2019-02-28T08:01:03.312Z,6
2019-02-28T08:02:04.132Z,6.1
2019-02-28T08:03:03.117Z,6.1
2019-02-28T08:04:02.585Z,6.1
2019-02-28T08:05:03.416Z,6.2
2019-02-28T08:06:05.893Z,6.3
2019-02-28T08:07:03.415Z,6.3
2019-02-28T08:08:03.098Z,6.3
2019-02-28T08:09:05.585Z,6.4
2019-02-28T08:10:03.460Z,6.4
2019-02-28T08:11:03.560Z,6.4
2019-02-28T08:12:03.497Z,6.6
2019-02-28T08:13:04.226Z,6.6
2019-02-28T08:14:03.710Z,6.6
2019-02-28T08:15:03.479Z,6.7
2019-02-28T08:16:03.601Z,6.8
2019-02-28T08:17:09.942Z,6.8
2019-02-28T08:18:06.007Z,6.8
2019-02-28T08:19:03.306Z,6.9
2019-02-28T08:20:03.099Z,6.9
2019-02-28T08:21:09.462Z,6.9
2019-02-28T08:22:03.586Z,7.1
2019-02-28T08:23:03.683Z,7.1
2019-02-28T08:24:06.465Z,7.1
2019-02-28T08:25:03.839Z,7.3
2019-02-28T08:26:02.717Z,7.4
2019-02-28T08:27:02.806Z,7.4
2019-02-28T08:28:03.037Z,7.5
2019-02-28T08:29:02.827Z,7.6
2019-02-28T08:30:03.187Z,7.6
2019-02-28T08:31:03.280Z,7.6
2019-02-28T08:32:08.310Z,7.7
2019-02-28T08:33:03.314Z,7.8
2019-02-28T08:34:03.154Z,7.8
2019-02-28T08:35:03.152Z,7.9
2019-02-28T08:36:03.055Z,8
2019-02-28T08:37:02.941Z,8.1
2019-02-28T08:38:03.260Z,8.2
2019-02-28T08:39:03.185Z,8.2
2019-02-28T08:40:03.340Z,8.3
2019-02-28T08:41:03.525Z,8.4
2019-02-28T08:42:05.066Z,8.6
2019-02-28T08:43:03.528Z,8.6
2019-02-28T08:44:03.393Z,8.7
2019-02-28T08:45:03.804Z,8.8
2019-02-28T08:46:13.828Z,8.9
2019-02-28T08:47:03.550Z,9
2019-02-28T08:48:03.360Z,9.1
2019-02-28T08:49:07.458Z,9.3
2019-02-28T08:50:03.640Z,9.3
2019-02-28T08:51:02.769Z,9.4
2019-02-28T08:52:06.774Z,9.6
2019-02-28T08:53:02.758Z,9.6
2019-02-28T08:54:02.831Z,9.7
2019-02-28T08:55:09.334Z,9.8
2019-02-28T08:56:02.849Z,9.9
2019-02-28T08:57:02.923Z,10
2019-02-28T08:58:06.879Z,10
2019-02-28T08:59:15.506Z,10.1
2019-02-28T09:00:03.304Z,10.3
2019-02-28T09:01:06.700Z,10.2
2019-02-28T09:02:02.989Z,10.3
2019-02-28T09:03:03.484Z,10.4
2019-02-28T09:04:05.949Z,10.6
2019-02-28T09:05:03.434Z,10.6
2019-02-28T09:06:07.582Z,10.8
2019-02-28T09:07:03.809Z,10.8
2019-02-28T09:08:03.696Z,10.8
2019-02-28T09:09:03.695Z,10.9
2019-02-28T09:10:03.408Z,11.1
2019-02-28T09:11:03.636Z,11.1
2019-02-28T09:12:03.625Z,11.3
2019-02-28T09:13:08.964Z,11.3
2019-02-28T09:14:03.567Z,11.4
2019-02-28T09:15:03.055Z,11.6
2019-02-28T09:16:05.679Z,11.7
2019-02-28T09:17:02.628Z,11.8
2019-02-28T09:18:03.671Z,11.9
2019-02-28T09:19:03.767Z,11.9
2019-02-28T09:20:03.606Z,12
2019-02-28T09:21:02.742Z,12.2
2019-02-28T09:22:03.720Z,12.3
2019-02-28T09:23:03.396Z,12.4
2019-02-28T09:24:02.960Z,12.4
2019-02-28T09:25:03.138Z,12.6
2019-02-28T09:26:03.658Z,12.7
2019-02-28T09:27:05.036Z,12.8
2019-02-28T09:28:03.058Z,12.9
2019-02-28T09:29:03.431Z,13.1
2019-02-28T09:30:03.402Z,13.1
2019-02-28T09:31:06.127Z,13.2
2019-02-28T09:32:03.061Z,13.3
2019-02-28T09:33:03.137Z,13.3
2019-02-28T09:34:03.412Z,13.4
2019-02-28T09:35:14.461Z,13.6
2019-02-28T09:36:03.596Z,13.7
2019-02-28T09:37:03.784Z,13.9
2019-02-28T09:38:13.313Z,14
2019-02-28T09:39:03.598Z,13.9
2019-02-28T09:40:03.783Z,13.9
2019-02-28T09:41:05.536Z,14.1
2019-02-28T09:42:03.492Z,14.3
2019-02-28T09:43:03.601Z,14.2
2019-02-28T09:44:03.545Z,14.4
2019-02-28T09:45:07.888Z,14.4
2019-02-28T09:46:03.361Z,14.4
2019-02-28T09:47:03.424Z,14.5
2019-02-28T09:48:02.874Z,14.6
2019-02-28T09:49:05.784Z,14.7
2019-02-28T09:50:02.891Z,14.8
2019-02-28T09:51:03.173Z,14.7
2019-02-28T09:52:07.393Z,15
2019-02-28T09:53:02.447Z,15
2019-02-28T09:54:03.547Z,15.1
2019-02-28T09:55:03.349Z,15.1
2019-02-28T09:56:03.047Z,15.3
2019-02-28T09:57:03.219Z,15.3
2019-02-28T09:58:03.360Z,15
2019-02-28T09:59:04.061Z,15
2019-02-28T10:00:03.219Z,15.3
2019-02-28T10:01:03.401Z,15.4
2019-02-28T10:02:09.669Z,15.4
2019-02-28T10:03:03.713Z,15.6
2019-02-28T10:04:03.833Z,15.6
2019-02-28T10:05:07.651Z,15.8
2019-02-28T10:06:03.512Z,15.8
2019-02-28T10:07:03.172Z,16
2019-02-28T10:08:03.650Z,15.9
2019-02-28T10:09:03.460Z,15.8
2019-02-28T10:10:03.358Z,15.8
2019-02-28T10:11:03.543Z,15.9
2019-02-28T10:12:09.628Z,16
2019-02-28T10:13:03.485Z,16
2019-02-28T10:14:03.196Z,16
2019-02-28T10:15:07.587Z,16
2019-02-28T10:16:03.587Z,16.2
2019-02-28T10:17:03.491Z,16.4
2019-02-28T10:18:05.509Z,16.5
2019-02-28T10:19:05.384Z,16.5
2019-02-28T10:20:03.297Z,16.4
2019-02-28T10:21:03.473Z,16.1
2019-02-28T10:22:03.480Z,15.9
2019-02-28T10:23:03.515Z,15.9
2019-02-28T10:24:03.347Z,16
2019-02-28T10:25:07.244Z,16
2019-02-28T10:26:03.408Z,15.9
2019-02-28T10:27:03.720Z,16
2019-02-28T10:28:03.696Z,16.1
2019-02-28T10:29:08.173Z,16
2019-02-28T10:30:03.630Z,16
2019-02-28T10:31:03.690Z,15.9
2019-02-28T10:32:09.772Z,16
2019-02-28T10:33:03.154Z,16.1
2019-02-28T10:34:03.889Z,16.1
2019-02-28T10:35:03.575Z,16.1
2019-02-28T10:36:03.597Z,16.3
2019-02-28T10:37:04.480Z,16.4
2019-02-28T10:38:03.778Z,16.6
2019-02-28T10:39:09.717Z,16.5
2019-02-28T10:40:05.259Z,16.4
2019-02-28T10:41:03.700Z,16.6
2019-02-28T10:42:06.197Z,16.5
2019-02-28T10:43:03.650Z,16.4
2019-02-28T10:44:03.734Z,16.6
2019-02-28T10:45:07.169Z,16.6
2019-02-28T10:46:03.889Z,16.4
2019-02-28T10:47:02.678Z,16.5
2019-02-28T10:48:04.203Z,16.6
2019-02-28T10:49:02.999Z,16.5
2019-02-28T10:50:02.991Z,16.6
2019-02-28T10:51:14.369Z,16.7
2019-02-28T10:52:02.895Z,16.6
2019-02-28T10:53:06.322Z,16.6
2019-02-28T10:54:03.133Z,16.4
2019-02-28T10:55:03.381Z,16.5
2019-02-28T10:56:02.891Z,16.7
2019-02-28T10:57:07.151Z,16.9
2019-02-28T10:58:02.900Z,16.9
2019-02-28T10:59:02.787Z,17
2019-02-28T11:00:02.797Z,16.9
2019-02-28T11:01:09.040Z,17.2
2019-02-28T11:02:02.800Z,17.2
2019-02-28T11:03:03.939Z,17.1
2019-02-28T11:04:08.239Z,17.1
2019-02-28T11:05:02.830Z,17
2019-02-28T11:06:03.251Z,17
2019-02-28T11:07:03.283Z,17
2019-02-28T11:08:03.040Z,16.9
2019-02-28T11:09:03.120Z,16.9
2019-02-28T11:10:03.165Z,16.9
2019-02-28T11:11:03.131Z,17.3
2019-02-28T11:12:03.041Z,17.4
2019-02-28T11:13:02.979Z,17.5
2019-02-28T11:14:05.079Z,17.6
2019-02-28T11:15:03.489Z,17.6
2019-02-28T11:16:03.050Z,17.6
2019-02-28T11:17:02.881Z,17.6
2019-02-28T11:18:10.073Z,17.5
2019-02-28T11:19:03.259Z,17.3
2019-02-28T11:20:03.371Z,17.4
2019-02-28T11:21:03.072Z,17.3
2019-02-28T11:22:06.126Z,17.1
2019-02-28T11:23:03.239Z,17.2
2019-02-28T11:24:03.110Z,16.5
2019-02-28T11:25:03.264Z,17.1
2019-02-28T11:26:02.958Z,17.4
2019-02-28T11:27:02.756Z,17.3
2019-02-28T11:28:02.847Z,17.6
2019-02-28T11:29:03.988Z,17.5
2019-02-28T11:30:03.322Z,17.7
2019-02-28T11:31:03.085Z,17.4
2019-02-28T11:32:03.564Z,17.5
2019-02-28T11:33:04.875Z,17.6
2019-02-28T11:34:03.938Z,17.5
2019-02-28T11:35:03.816Z,17.7
2019-02-28T11:36:03.402Z,17.8
2019-02-28T11:37:09.950Z,17.6
2019-02-28T11:38:05.211Z,17.9
2019-02-28T11:39:03.733Z,18
2019-02-28T11:40:09.220Z,17.8
2019-02-28T11:41:03.470Z,17.8
2019-02-28T11:42:03.397Z,17.6
2019-02-28T11:43:04.294Z,17.6
2019-02-28T11:44:03.543Z,17.6
2019-02-28T11:45:03.169Z,17.8
2019-02-28T11:46:03.246Z,17.9
2019-02-28T11:47:03.265Z,17.8
2019-02-28T11:48:03.287Z,17.8
2019-02-28T11:49:03.267Z,17.6
2019-02-28T11:50:07.879Z,17.6
2019-02-28T11:51:03.679Z,17.7
2019-02-28T11:52:02.916Z,17.6
2019-02-28T11:53:06.157Z,17.8
2019-02-28T11:54:03.605Z,17.8
2019-02-28T11:55:03.344Z,18
2019-02-28T11:56:03.013Z,17.9
2019-02-28T11:57:07.012Z,17.8
2019-02-28T11:58:03.595Z,17.9
2019-02-28T11:59:02.058Z,17.8
2019-02-28T12:00:03.401Z,17.9
2019-02-28T12:01:03.430Z,18
2019-02-28T12:02:03.696Z,18
2019-02-28T12:03:06.153Z,17.8
2019-02-28T12:04:03.004Z,17.6
2019-02-28T12:05:03.310Z,17.7
2019-02-28T12:06:03.139Z,17.6
2019-02-28T12:07:03.125Z,17.7
2019-02-28T12:08:03.018Z,17.7
2019-02-28T12:09:03.017Z,17.7
2019-02-28T12:10:03.449Z,17.8
2019-02-28T12:11:03.072Z,17.9
2019-02-28T12:12:03.056Z,17.6
2019-02-28T12:13:02.931Z,17.6
2019-02-28T12:14:03.075Z,17.8
2019-02-28T12:15:06.845Z,17.9
2019-02-28T12:16:03.788Z,17.8
2019-02-28T12:17:03.042Z,17.9
2019-02-28T12:18:05.032Z,17.9
2019-02-28T12:19:03.032Z,17.8
2019-02-28T12:20:04.071Z,17.9
2019-02-28T12:21:05.129Z,17.9
2019-02-28T12:22:03.036Z,17.9
2019-02-28T12:23:02.898Z,17.8
2019-02-28T12:24:02.748Z,17.6
2019-02-28T12:25:08.380Z,17.8
2019-02-28T12:26:02.816Z,17.8
2019-02-28T12:27:04.299Z,17.9
2019-02-28T12:28:06.887Z,18
2019-02-28T12:29:02.891Z,18.2
2019-02-28T12:30:03.165Z,18.3
2019-02-28T12:31:02.952Z,18.2
2019-02-28T12:32:02.815Z,17.9
2019-02-28T12:33:03.438Z,17.9
2019-02-28T12:34:03.040Z,17.8
2019-02-28T12:35:02.925Z,18.1
2019-02-28T12:36:03.138Z,18.1
2019-02-28T12:37:03.687Z,18.1
2019-02-28T12:38:03.667Z,18.2
2019-02-28T12:39:03.665Z,18.1
2019-02-28T12:40:02.932Z,18.2
2019-02-28T12:41:02.749Z,18.1
2019-02-28T12:42:03.629Z,18
2019-02-28T12:43:09.614Z,17.9
2019-02-28T12:44:03.543Z,17.8
2019-02-28T12:45:03.078Z,17.8
2019-02-28T12:46:03.645Z,17.9
2019-02-28T12:47:07.480Z,17.9
2019-02-28T12:48:03.451Z,18
2019-02-28T12:49:02.830Z,17.9
2019-02-28T12:50:03.745Z,18
2019-02-28T12:51:06.292Z,17.9
2019-02-28T12:52:03.699Z,17.9
2019-02-28T12:53:03.255Z,18
2019-02-28T12:54:03.413Z,18.1
2019-02-28T12:55:04.977Z,18.1
2019-02-28T12:56:03.496Z,18
2019-02-28T12:57:03.341Z,17.9
2019-02-28T12:58:03.439Z,17.9
2019-02-28T12:59:03.241Z,17.9
2019-02-28T13:00:03.843Z,18
2019-02-28T13:01:03.421Z,18.1
2019-02-28T13:02:08.665Z,17.9
2019-02-28T13:03:03.348Z,17.6
2019-02-28T13:04:03.403Z,17.6
2019-02-28T13:05:03.153Z,17.6
2019-02-28T13:06:03.547Z,17.8
2019-02-28T13:07:03.474Z,17.9
2019-02-28T13:08:07.204Z,17.7
2019-02-28T13:09:03.293Z,17.6
2019-02-28T13:10:04.189Z,17.7
2019-02-28T13:11:04.822Z,17.6
2019-02-28T13:12:03.236Z,17.4
2019-02-28T13:13:08.047Z,17.4
2019-02-28T13:14:06.679Z,17.4
2019-02-28T13:15:03.822Z,17.1
2019-02-28T13:16:03.853Z,16.9
2019-02-28T13:17:03.133Z,17.2
2019-02-28T13:18:09.517Z,17.4
2019-02-28T13:19:03.545Z,17.4
2019-02-28T13:20:03.383Z,17.4
2019-02-28T13:21:11.648Z,17.4
2019-02-28T13:22:03.312Z,17.4
2019-02-28T13:23:03.067Z,17.5
2019-02-28T13:24:10.688Z,17.5
2019-02-28T13:25:02.932Z,17.4
2019-02-28T13:26:03.154Z,17.4
2019-02-28T13:27:10.878Z,17.4
2019-02-28T13:28:03.042Z,17.4
2019-02-28T13:29:02.957Z,17.5
2019-02-28T13:30:11.660Z,17.5
2019-02-28T13:31:03.049Z,17.5
2019-02-28T13:32:03.410Z,17.6
2019-02-28T13:33:03.036Z,17.6
2019-02-28T13:34:03.729Z,17.5
2019-02-28T13:35:09.324Z,17.4
2019-02-28T13:36:02.862Z,17.4
2019-02-28T13:37:03.384Z,17.4
2019-02-28T13:38:03.013Z,17.5
2019-02-28T13:39:02.987Z,17.6
2019-02-28T13:40:09.420Z,17.5
2019-02-28T13:41:02.944Z,17.4